Time;durP1;ratioP1;P1;durP2;ratioP2;P2;SDS_P1;SDS_P2;PMS_P1;PMS_P2;Temp;Humidity;BMP_temperature;BMP_pressure;BME280_temperature;BME280_humidity;BME280_pressure;Samples;Min_cycle;Max_cycle;Signal;HPM_P1;HPM_P2
2023/08/16 00:02:12;;;;;;;8.63;3.00;;;20.30;99.90;;;;;;5027935;28;20024;-71
2023/08/16 00:04:37;;;;;;;4.43;2.22;;;20.30;99.90;;;;;;5027677;28;20030;-71
2023/08/16 00:07:03;;;;;;;3.92;2.60;;;20.30;99.90;;;;;;5027896;28;20057;-71
2023/08/16 00:09:29;;;;;;;5.43;2.95;;;20.40;99.90;;;;;;5028157;28;20065;-71
2023/08/16 00:11:54;;;;;;;4.88;2.97;;;20.30;99.90;;;;;;5028010;28;20029;-71
2023/08/16 00:14:20;;;;;;;4.95;2.78;;;20.60;99.90;;;;;;5028136;28;20375;-71
2023/08/16 00:16:46;;;;;;;7.32;2.58;;;20.60;99.90;;;;;;5027929;28;20095;-71
2023/08/16 00:19:12;;;;;;;5.18;2.63;;;20.40;99.90;;;;;;5029644;28;20053;-71
2023/08/16 00:21:38;;;;;;;5.05;2.67;;;20.40;99.90;;;;;;5031832;28;20025;-71
2023/08/16 00:24:05;;;;;;;6.30;2.95;;;20.30;99.90;;;;;;5031672;28;20030;-71
2023/08/16 00:26:31;;;;;;;11.05;3.55;;;20.30;99.90;;;;;;5031830;28;20379;-71
2023/08/16 00:28:56;;;;;;;5.85;3.08;;;20.40;99.90;;;;;;5031719;28;20026;-71
2023/08/16 00:31:23;;;;;;;5.38;3.25;;;20.40;99.90;;;;;;5032120;28;20422;-71
2023/08/16 00:33:49;;;;;;;5.88;3.20;;;20.40;99.90;;;;;;5031625;28;20057;-71
2023/08/16 00:36:15;;;;;;;6.93;3.28;;;20.50;99.90;;;;;;5031606;28;20021;-71
2023/08/16 00:38:43;;;;;;;6.93;3.80;;;20.50;99.90;;;;;;5031338;28;20060;-70
2023/08/16 00:41:12;;;;;;;6.80;3.60;;;20.50;99.90;;;;;;5031590;28;20102;-71
2023/08/16 00:43:39;;;;;;;5.25;3.78;;;20.40;99.90;;;;;;5031545;28;20033;-71
2023/08/16 00:46:07;;;;;;;7.78;3.55;;;20.50;99.90;;;;;;5031307;28;20056;-71
2023/08/16 00:48:35;;;;;;;6.03;4.03;;;20.50;99.90;;;;;;5031395;28;20095;-70
2023/08/16 00:51:02;;;;;;;7.53;4.20;;;20.50;99.90;;;;;;5031653;28;20030;-70
2023/08/16 00:53:30;;;;;;;7.63;3.47;;;20.50;99.90;;;;;;5031301;28;20072;-71
2023/08/16 00:55:57;;;;;;;5.57;3.95;;;20.60;99.90;;;;;;5031636;28;20033;-71
2023/08/16 00:58:23;;;;;;;6.47;3.67;;;20.70;99.90;;;;;;5030845;28;20490;-71
2023/08/16 01:00:49;;;;;;;6.13;3.50;;;20.50;99.90;;;;;;5030815;28;20528;-71
2023/08/16 01:03:14;;;;;;;7.60;3.92;;;20.40;99.90;;;;;;5030921;28;20017;-71
2023/08/16 01:05:40;;;;;;;6.75;3.55;;;20.70;99.90;;;;;;5031159;28;20029;-71
2023/08/16 01:08:06;;;;;;;11.63;4.65;;;20.50;99.90;;;;;;5030479;28;20048;-71
2023/08/16 01:10:51;;;;;;;8.38;3.88;;;20.40;99.90;;;;;;5030566;28;20087;-71
2023/08/16 01:13:26;;;;;;;5.60;4.07;;;20.30;99.90;;;;;;5030846;28;20041;-71
2023/08/16 01:15:55;;;;;;;6.65;4.05;;;20.30;99.90;;;;;;5030172;28;20104;-71
2023/08/16 01:18:23;;;;;;;5.40;3.92;;;20.30;99.90;;;;;;5035257;28;20109;-70
2023/08/16 01:20:50;;;;;;;7.07;4.78;;;20.30;99.90;;;;;;5035287;28;20040;-71
2023/08/16 01:23:37;;;;;;;6.90;4.15;;;20.20;99.90;;;;;;5035685;28;20020;-71
2023/08/16 01:26:41;;;;;;;5.50;3.17;;;20.50;99.90;;;;;;5035291;28;20487;-71
2023/08/16 01:29:09;;;;;;;7.30;4.82;;;20.40;99.90;;;;;;5035648;28;20035;-71
2023/08/16 01:31:35;;;;;;;5.22;3.95;;;20.30;99.90;;;;;;5034358;28;20105;-71
2023/08/16 01:34:01;;;;;;;6.43;3.55;;;20.20;99.90;;;;;;5035423;28;20108;-71
2023/08/16 01:36:27;;;;;;;7.10;3.78;;;20.20;99.90;;;;;;5035337;28;20030;-71
2023/08/16 01:38:54;;;;;;;6.32;4.30;;;20.10;99.90;;;;;;5034652;28;20026;-71
2023/08/16 01:41:24;;;;;;;9.98;4.03;;;20.10;99.90;;;;;;5034977;28;20132;-71
2023/08/16 01:43:50;;;;;;;6.57;4.05;;;20.20;99.90;;;;;;5035173;28;20032;-71
2023/08/16 01:46:17;;;;;;;8.10;4.28;;;20.40;99.90;;;;;;5034901;28;20063;-71
2023/08/16 01:48:45;;;;;;;6.35;4.68;;;20.30;99.90;;;;;;5034791;28;20033;-71
2023/08/16 01:51:11;;;;;;;8.18;3.65;;;20.20;99.90;;;;;;5034709;28;20030;-71
2023/08/16 01:53:37;;;;;;;7.05;4.30;;;20.30;99.90;;;;;;5034638;28;20368;-71
2023/08/16 01:56:03;;;;;;;7.55;4.35;;;20.50;99.90;;;;;;5034775;28;20029;-71
2023/08/16 01:58:28;;;;;;;8.77;4.20;;;20.60;99.90;;;;;;5034713;28;20030;-71
2023/08/16 02:00:54;;;;;;;5.80;4.18;;;20.40;99.90;;;;;;5034724;28;20031;-70
2023/08/16 02:03:20;;;;;;;6.00;3.83;;;20.20;99.90;;;;;;5034564;28;20029;-71
2023/08/16 02:05:45;;;;;;;6.65;4.03;;;20.00;99.90;;;;;;5034595;28;20412;-72
2023/08/16 02:08:12;;;;;;;6.72;4.50;;;20.00;99.90;;;;;;5034892;28;20087;-71
2023/08/16 02:10:38;;;;;;;7.90;4.43;;;20.20;99.90;;;;;;5034567;28;20025;-71
2023/08/16 02:13:04;;;;;;;5.95;4.40;;;20.30;99.90;;;;;;5034290;28;20099;-71
2023/08/16 02:15:29;;;;;;;10.48;4.13;;;20.20;99.90;;;;;;5034128;28;20104;-71
2023/08/16 02:17:55;;;;;;;7.93;4.35;;;20.20;99.90;;;;;;5034454;28;20039;-71
2023/08/16 02:20:21;;;;;;;5.47;3.65;;;20.20;99.90;;;;;;5034129;28;20055;-71
2023/08/16 02:22:47;;;;;;;6.75;4.20;;;20.30;99.90;;;;;;5034566;28;20053;-71
2023/08/16 02:25:13;;;;;;;7.20;4.38;;;20.30;99.90;;;;;;5034402;28;20029;-71
2023/08/16 02:27:39;;;;;;;6.30;4.18;;;20.30;99.90;;;;;;5034257;28;20078;-71
2023/08/16 02:30:05;;;;;;;6.55;3.85;;;20.40;99.90;;;;;;5033979;28;20112;-71
2023/08/16 02:32:33;;;;;;;7.40;4.00;;;20.40;99.90;;;;;;5034155;28;20036;-71
2023/08/16 02:34:59;;;;;;;6.18;3.95;;;20.40;99.90;;;;;;5033917;28;20037;-71
2023/08/16 02:37:25;;;;;;;6.70;2.88;;;20.40;99.90;;;;;;5033975;28;20026;-71
2023/08/16 02:39:51;;;;;;;7.47;3.67;;;20.60;99.90;;;;;;5033924;28;20068;-70
2023/08/16 02:42:17;;;;;;;9.60;4.43;;;20.60;99.90;;;;;;5032703;28;20049;-71
2023/08/16 02:44:43;;;;;;;8.98;4.35;;;20.50;99.90;;;;;;5033542;28;20017;-71
2023/08/16 02:47:09;;;;;;;5.65;3.85;;;20.50;99.90;;;;;;5033689;28;20051;-71
2023/08/16 02:49:34;;;;;;;5.63;4.07;;;20.60;99.90;;;;;;5033575;28;20025;-71
2023/08/16 02:52:00;;;;;;;7.47;3.92;;;20.40;99.90;;;;;;5033715;28;20033;-71
2023/08/16 02:54:25;;;;;;;5.97;3.72;;;20.20;99.90;;;;;;5033565;28;20191;-71
2023/08/16 02:56:51;;;;;;;5.78;3.65;;;20.00;99.90;;;;;;5033620;28;20037;-71
2023/08/16 02:59:17;;;;;;;5.22;3.65;;;20.10;99.90;;;;;;5033772;28;20025;-71
2023/08/16 03:01:43;;;;;;;6.07;3.88;;;20.10;99.90;;;;;;5033467;28;20524;-71
2023/08/16 03:04:10;;;;;;;8.73;3.95;;;20.10;99.90;;;;;;5015949;28;20057;-71
2023/08/16 03:06:35;;;;;;;7.35;3.65;;;20.10;99.90;;;;;;5008966;28;20387;-72
2023/08/16 03:09:01;;;;;;;6.43;3.45;;;20.10;99.90;;;;;;5008627;28;20018;-71
2023/08/16 03:11:26;;;;;;;7.03;3.28;;;20.00;99.90;;;;;;5008787;28;20491;-71
2023/08/16 03:13:52;;;;;;;7.43;3.35;;;20.00;99.90;;;;;;5008605;28;20621;-70
2023/08/16 03:16:18;;;;;;;5.75;3.65;;;20.00;99.90;;;;;;5008533;28;20500;-71
2023/08/16 03:18:43;;;;;;;6.45;3.38;;;19.70;99.90;;;;;;5005811;28;20032;-71
2023/08/16 03:21:09;;;;;;;5.53;3.55;;;19.80;99.90;;;;;;5006150;28;20034;-70
2023/08/16 03:23:35;;;;;;;6.60;3.67;;;19.80;99.90;;;;;;5007007;28;20050;-70
2023/08/16 03:26:01;;;;;;;5.05;3.10;;;19.90;99.90;;;;;;5008701;28;20147;-71
2023/08/16 03:28:26;;;;;;;5.35;3.15;;;19.80;99.90;;;;;;5008882;28;20515;-70
2023/08/16 03:30:52;;;;;;;9.32;2.95;;;20.00;99.90;;;;;;5008839;28;20072;-71
2023/08/16 03:33:18;;;;;;;6.65;3.67;;;20.00;99.90;;;;;;5009141;28;20427;-71
2023/08/16 03:35:43;;;;;;;5.68;3.08;;;20.10;99.90;;;;;;5008954;28;20105;-71
2023/08/16 03:38:09;;;;;;;5.88;3.05;;;20.00;99.90;;;;;;5008832;28;20053;-72
2023/08/16 03:40:34;;;;;;;6.93;2.88;;;20.10;99.90;;;;;;5008468;28;20122;-71
2023/08/16 03:43:00;;;;;;;5.05;3.13;;;20.10;99.90;;;;;;5008842;28;20037;-72
2023/08/16 03:45:26;;;;;;;4.72;2.70;;;20.20;99.90;;;;;;5008603;28;20026;-71
2023/08/16 03:47:57;;;;;;;6.68;3.10;;;20.20;99.90;;;;;;5008566;28;20571;-71
2023/08/16 03:50:23;;;;;;;5.22;2.83;;;20.10;99.90;;;;;;5008866;28;20419;-71
2023/08/16 03:52:48;;;;;;;6.88;2.75;;;19.90;99.90;;;;;;5008572;28;20037;-71
2023/08/16 03:55:14;;;;;;;5.57;3.20;;;19.90;99.90;;;;;;5008361;28;20025;-71
2023/08/16 03:57:40;;;;;;;5.05;2.85;;;19.80;99.90;;;;;;5008629;28;20104;-71
2023/08/16 04:00:11;;;;;;;4.38;3.08;;;19.90;99.90;;;;;;5008471;28;20483;-71
2023/08/16 04:02:40;;;;;;;7.00;3.25;;;19.90;99.90;;;;;;5008336;28;20030;-71
2023/08/16 04:05:11;;;;;;;5.97;2.90;;;19.90;99.90;;;;;;5008616;28;20061;-72
2023/08/16 04:07:38;;;;;;;6.43;2.92;;;19.90;99.90;;;;;;5008382;28;20504;-71
2023/08/16 04:10:04;;;;;;;4.55;3.15;;;19.80;99.90;;;;;;5008549;28;20034;-71
2023/08/16 04:12:30;;;;;;;4.60;2.60;;;19.80;99.90;;;;;;5008537;28;20077;-71
2023/08/16 04:14:56;;;;;;;6.57;3.00;;;19.60;99.90;;;;;;5008586;28;20066;-71
2023/08/16 04:17:21;;;;;;;5.85;3.20;;;19.60;99.90;;;;;;5008716;28;20029;-71
2023/08/16 04:19:47;;;;;;;4.60;2.75;;;19.70;99.90;;;;;;5008788;28;20101;-71
2023/08/16 04:22:13;;;;;;;6.57;3.28;;;19.60;99.90;;;;;;5008940;28;20030;-71
2023/08/16 04:24:38;;;;;;;8.60;3.40;;;19.40;99.90;;;;;;5008660;28;20026;-71
2023/08/16 04:27:05;;;;;;;4.57;2.90;;;19.50;99.90;;;;;;5008385;28;20026;-71
2023/08/16 04:29:30;;;;;;;4.43;3.03;;;19.40;99.90;;;;;;5008292;28;20083;-71
2023/08/16 04:31:56;;;;;;;4.70;3.05;;;19.40;99.90;;;;;;5008786;28;20038;-71
2023/08/16 04:34:22;;;;;;;7.10;2.90;;;19.60;99.90;;;;;;5008709;28;20029;-71
2023/08/16 04:36:48;;;;;;;6.32;2.72;;;19.80;99.90;;;;;;5008403;28;20531;-71
2023/08/16 04:39:14;;;;;;;6.85;3.22;;;19.80;99.90;;;;;;5008123;28;20029;-71
2023/08/16 04:41:39;;;;;;;7.78;3.40;;;19.70;99.90;;;;;;5007779;28;20519;-71
2023/08/16 04:44:05;;;;;;;6.03;2.83;;;19.50;99.90;;;;;;5007979;28;20038;-71
2023/08/16 04:46:31;;;;;;;6.30;3.20;;;19.50;99.90;;;;;;5008235;28;20069;-71
2023/08/16 04:48:56;;;;;;;5.28;3.47;;;19.70;99.90;;;;;;5008134;28;20157;-71
2023/08/16 04:51:22;;;;;;;9.23;2.83;;;19.70;99.90;;;;;;5008237;28;20428;-71
2023/08/16 04:53:48;;;;;;;4.28;2.78;;;19.60;99.90;;;;;;5007875;28;20415;-71
2023/08/16 04:56:13;;;;;;;7.35;2.97;;;19.60;99.90;;;;;;5008267;28;20419;-71
2023/08/16 04:58:39;;;;;;;5.55;2.60;;;19.60;99.90;;;;;;5008054;28;20468;-71
2023/08/16 05:01:05;;;;;;;5.45;2.85;;;19.50;99.90;;;;;;5008125;28;20026;-71
2023/08/16 05:03:31;;;;;;;6.35;2.78;;;19.30;99.90;;;;;;5007270;28;20064;-71
2023/08/16 05:06:04;;;;;;;7.45;3.33;;;19.30;99.90;;;;;;5006330;28;20049;-71
2023/08/16 05:08:33;;;;;;;6.33;2.77;;;19.20;99.90;;;;;;5008295;28;20030;-71
2023/08/16 05:10:58;;;;;;;4.80;3.17;;;19.10;99.90;;;;;;5009233;28;20026;-71
2023/08/16 05:13:24;;;;;;;6.22;3.58;;;19.00;99.90;;;;;;5008549;28;20884;-71
2023/08/16 05:15:50;;;;;;;5.28;2.80;;;19.00;99.90;;;;;;5008492;28;20033;-71
2023/08/16 05:18:16;;;;;;;4.65;2.58;;;19.10;99.90;;;;;;5011435;28;20037;-71
2023/08/16 05:20:41;;;;;;;4.55;2.90;;;19.20;99.90;;;;;;5011685;28;20057;-71
2023/08/16 05:23:07;;;;;;;5.15;2.90;;;19.30;99.90;;;;;;5011499;28;20053;-71
2023/08/16 05:25:33;;;;;;;5.03;2.80;;;19.50;99.90;;;;;;5011717;28;20345;-71
2023/08/16 05:27:58;;;;;;;5.00;2.72;;;19.60;99.90;;;;;;5011105;28;20076;-71
2023/08/16 05:30:25;;;;;;;6.68;3.03;;;19.70;99.90;;;;;;5011600;28;20034;-71
2023/08/16 05:32:54;;;;;;;4.68;3.00;;;19.80;99.90;;;;;;5011122;28;20045;-71
2023/08/16 05:35:19;;;;;;;5.00;2.72;;;19.90;99.90;;;;;;5008700;28;20113;-71
2023/08/16 05:37:45;;;;;;;6.28;3.60;;;20.00;99.90;;;;;;5007722;28;20109;-71
2023/08/16 05:40:11;;;;;;;5.53;2.90;;;20.00;99.90;;;;;;5010394;28;20044;-73
2023/08/16 05:42:38;;;;;;;4.35;2.75;;;20.20;99.90;;;;;;5010642;28;20427;-71
2023/08/16 05:45:04;;;;;;;4.65;3.15;;;20.30;99.90;;;;;;5010733;28;20030;-71
2023/08/16 05:47:30;;;;;;;4.60;2.95;;;20.40;99.90;;;;;;5028977;28;20099;-71
2023/08/16 05:49:56;;;;;;;4.93;2.30;;;20.50;99.90;;;;;;5030314;28;20455;-72
2023/08/16 05:52:22;;;;;;;5.63;2.90;;;20.50;99.90;;;;;;5030203;28;20030;-71
2023/08/16 05:54:48;;;;;;;4.82;2.63;;;20.60;99.90;;;;;;5030374;28;20030;-71
2023/08/16 05:57:13;;;;;;;5.63;2.58;;;20.70;99.90;;;;;;5030164;28;20053;-70
2023/08/16 05:59:40;;;;;;;5.55;3.10;;;20.80;99.90;;;;;;5030479;28;20036;-71
2023/08/16 06:02:06;;;;;;;6.57;3.00;;;20.90;99.90;;;;;;5030657;28;20079;-71
2023/08/16 06:04:33;;;;;;;13.65;3.17;;;21.00;99.90;;;;;;5029386;28;20087;-71
2023/08/16 06:06:59;;;;;;;4.90;3.03;;;21.10;99.90;;;;;;5027103;28;20029;-71
2023/08/16 06:09:24;;;;;;;6.90;2.75;;;21.20;99.90;;;;;;5027167;28;20036;-71
2023/08/16 06:11:50;;;;;;;10.18;2.95;;;21.10;99.90;;;;;;5027473;28;20678;-71
2023/08/16 06:14:16;;;;;;;8.95;2.70;;;21.20;99.90;;;;;;5027254;28;20084;-71
2023/08/16 06:16:41;;;;;;;7.53;3.20;;;21.30;99.90;;;;;;5027350;28;20065;-71
2023/08/16 06:19:08;;;;;;;5.93;2.70;;;21.40;99.90;;;;;;5027396;28;20029;-71
2023/08/16 06:21:34;;;;;;;6.07;3.35;;;21.30;99.90;;;;;;5027298;28;20017;-71
2023/08/16 06:24:00;;;;;;;8.98;3.70;;;21.40;99.90;;;;;;5026908;28;20040;-71
2023/08/16 06:26:25;;;;;;;6.78;2.95;;;21.50;99.90;;;;;;5026526;28;20026;-71
2023/08/16 06:28:51;;;;;;;4.47;2.67;;;21.60;99.90;;;;;;5026975;28;20041;-71
2023/08/16 06:31:17;;;;;;;7.50;2.80;;;21.60;99.90;;;;;;5026822;28;20022;-71
2023/08/16 06:33:43;;;;;;;7.60;3.22;;;21.60;99.90;;;;;;5026755;28;20084;-71
2023/08/16 06:36:09;;;;;;;5.22;2.85;;;21.70;99.90;;;;;;5027207;28;20031;-71
2023/08/16 06:38:36;;;;;;;4.60;2.97;;;21.70;99.90;;;;;;5026496;28;20105;-71
2023/08/16 06:41:02;;;;;;;4.78;2.63;;;21.70;99.90;;;;;;5026643;28;20045;-70
2023/08/16 06:43:28;;;;;;;6.03;3.30;;;21.60;99.90;;;;;;5026427;28;20025;-71
2023/08/16 06:45:56;;;;;;;5.43;2.83;;;21.70;99.90;;;;;;5026734;28;20368;-72
2023/08/16 06:48:22;;;;;;;11.27;3.40;;;21.60;99.90;;;;;;5026495;28;20043;-71
2023/08/16 06:50:47;;;;;;;21.45;3.58;;;21.70;99.90;;;;;;5025613;28;20022;-71
2023/08/16 06:53:13;;;;;;;5.57;2.80;;;21.70;99.90;;;;;;5025479;28;20083;-71
2023/08/16 06:55:39;;;;;;;6.50;3.28;;;21.70;99.90;;;;;;5025588;28;20057;-70
2023/08/16 06:58:07;;;;;;;4.63;2.78;;;21.80;99.90;;;;;;5025943;28;20018;-71
2023/08/16 07:00:34;;;;;;;4.85;3.25;;;21.80;99.90;;;;;;5026328;28;20025;-71
2023/08/16 07:03:02;;;;;;;9.95;3.53;;;21.80;99.90;;;;;;5026372;28;20026;-71
2023/08/16 07:05:28;;;;;;;10.18;3.88;;;21.70;99.90;;;;;;5026201;28;20026;-71
2023/08/16 07:07:54;;;;;;;5.78;3.22;;;21.60;99.90;;;;;;5025888;28;20040;-70
2023/08/16 07:10:20;;;;;;;7.00;3.80;;;21.60;99.90;;;;;;5026267;28;20056;-71
2023/08/16 07:12:46;;;;;;;6.15;3.08;;;21.60;99.90;;;;;;5025996;28;20133;-70
2023/08/16 07:15:12;;;;;;;6.53;3.83;;;21.60;99.90;;;;;;5026168;28;20025;-71
2023/08/16 07:17:38;;;;;;;7.28;3.40;;;21.60;99.90;;;;;;5026398;28;20036;-72
2023/08/16 07:20:08;;;;;;;10.13;5.00;;;21.70;99.90;;;;;;5025628;28;20087;-71
2023/08/16 07:22:37;;;;;;;6.45;4.35;;;21.80;99.90;;;;;;5025810;28;20530;-71
2023/08/16 07:25:04;;;;;;;6.65;3.80;;;21.90;99.90;;;;;;5026062;28;20406;-71
2023/08/16 07:27:30;;;;;;;6.60;3.38;;;21.80;99.90;;;;;;5026283;28;20556;-76
2023/08/16 07:29:56;;;;;;;8.93;3.20;;;21.90;99.90;;;;;;5028347;28;20017;-71
2023/08/16 07:32:22;;;;;;;6.63;3.58;;;21.90;99.90;;;;;;5025947;28;20119;-71
2023/08/16 07:34:47;;;;;;;6.25;4.18;;;22.20;99.90;;;;;;5026092;28;20037;-71
2023/08/16 07:37:14;;;;;;;5.88;3.30;;;22.40;99.90;;;;;;5025663;28;20120;-71
2023/08/16 07:39:40;;;;;;;6.60;3.60;;;22.60;99.90;;;;;;5025743;28;20021;-71
2023/08/16 07:42:07;;;;;;;6.25;3.47;;;24.60;99.90;;;;;;5025788;28;20049;-71
2023/08/16 07:44:36;;;;;;;6.43;2.97;;;25.90;99.90;;;;;;5025848;28;20495;-71
2023/08/16 07:47:02;;;;;;;6.90;2.95;;;25.20;99.90;;;;;;5025939;28;20045;-71
2023/08/16 07:49:29;;;;;;;6.10;3.08;;;24.40;99.90;;;;;;5025333;28;20022;-71
2023/08/16 07:51:56;;;;;;;6.05;3.28;;;23.90;99.90;;;;;;5025416;28;20570;-71
2023/08/16 07:54:22;;;;;;;5.80;3.63;;;23.40;99.90;;;;;;5025326;28;20033;-71
2023/08/16 07:56:48;;;;;;;8.48;3.20;;;23.20;99.90;;;;;;5025272;28;20060;-71
2023/08/16 07:59:14;;;;;;;10.02;4.63;;;22.90;99.90;;;;;;5023200;28;20075;-71
2023/08/16 08:01:43;;;;;;;4.72;2.60;;;22.80;99.90;;;;;;5024842;28;20051;-71
2023/08/16 08:04:09;;;;;;;6.15;3.20;;;22.70;99.90;;;;;;5024586;28;20048;-71
2023/08/16 08:06:35;;;;;;;10.02;3.85;;;22.80;99.90;;;;;;5024424;28;20025;-71
2023/08/16 08:09:01;;;;;;;8.77;3.92;;;23.00;99.90;;;;;;5024632;28;20518;-71
2023/08/16 08:11:27;;;;;;;6.40;3.63;;;23.10;99.90;;;;;;5024652;28;20029;-71
2023/08/16 08:13:53;;;;;;;5.80;3.17;;;22.90;99.90;;;;;;5024660;28;20037;-71
2023/08/16 08:16:18;;;;;;;5.13;3.30;;;23.00;99.90;;;;;;5024207;28;20079;-71
2023/08/16 08:18:45;;;;;;;6.78;3.33;;;23.00;99.90;;;;;;5024513;28;20379;-71
2023/08/16 08:21:11;;;;;;;6.28;3.60;;;23.00;99.90;;;;;;5024371;28;20655;-71
2023/08/16 08:23:37;;;;;;;6.75;4.03;;;22.90;99.90;;;;;;5024716;28;20021;-71
2023/08/16 08:26:02;;;;;;;5.10;2.97;;;22.70;99.90;;;;;;5024407;28;20032;-71
2023/08/16 08:28:28;;;;;;;12.13;3.35;;;22.90;99.90;;;;;;5024632;28;20033;-71
2023/08/16 08:30:54;;;;;;;4.72;2.78;;;23.00;99.90;;;;;;5010945;28;20112;-71
2023/08/16 08:33:20;;;;;;;6.90;3.72;;;23.60;99.90;;;;;;5024592;28;20037;-71
2023/08/16 08:35:46;;;;;;;6.32;3.15;;;26.00;99.90;;;;;;5024010;28;20036;-71
2023/08/16 08:38:12;;;;;;;6.13;4.03;;;27.60;99.90;;;;;;5015481;28;20025;-71
2023/08/16 08:40:38;;;;;;;7.15;2.92;;;28.50;99.90;;;;;;5020484;28;20022;-71
2023/08/16 08:43:06;;;;;;;5.03;3.45;;;28.30;99.10;;;;;;5028273;28;20061;-71
2023/08/16 08:45:33;;;;;;;6.07;3.53;;;28.10;99.50;;;;;;5028016;28;20029;-71
2023/08/16 08:48:00;;;;;;;5.97;3.20;;;28.30;99.50;;;;;;5027958;28;20033;-72
2023/08/16 08:50:29;;;;;;;5.05;2.70;;;27.60;99.60;;;;;;5028344;28;20030;-71
2023/08/16 08:52:56;;;;;;;6.38;3.47;;;29.00;99.40;;;;;;5018154;28;20045;-71
2023/08/16 08:55:25;;;;;;;4.65;3.17;;;29.10;99.30;;;;;;5025331;28;20026;-71
2023/08/16 08:57:54;;;;;;;7.55;3.65;;;29.00;99.10;;;;;;5028059;28;20099;-71
2023/08/16 09:00:20;;;;;;;8.82;3.53;;;28.80;99.30;;;;;;5027878;28;20022;-71
2023/08/16 09:02:49;;;;;;;6.10;3.35;;;28.10;99.70;;;;;;5027470;28;20034;-72
2023/08/16 09:05:18;;;;;;;6.03;3.50;;;26.90;99.90;;;;;;5027540;28;20616;-71
2023/08/16 09:07:44;;;;;;;5.53;2.90;;;26.60;99.90;;;;;;5027560;28;20109;-72
2023/08/16 09:10:12;;;;;;;4.68;2.85;;;26.10;99.90;;;;;;5027381;28;20116;-72
2023/08/16 09:12:38;;;;;;;5.80;3.63;;;26.00;99.90;;;;;;5027607;28;20038;-72
2023/08/16 09:15:07;;;;;;;7.45;3.28;;;25.90;99.90;;;;;;5027078;28;20028;-72
2023/08/16 09:17:33;;;;;;;5.63;3.80;;;25.70;99.90;;;;;;5027688;28;20049;-71
2023/08/16 09:20:00;;;;;;;4.65;3.10;;;25.70;99.90;;;;;;5027388;28;20104;-71
2023/08/16 09:22:27;;;;;;;5.68;3.15;;;25.50;99.90;;;;;;5027515;28;20028;-71
2023/08/16 09:24:56;;;;;;;9.27;4.55;;;25.60;99.90;;;;;;5027003;28;20100;-71
2023/08/16 09:27:22;;;;;;;5.80;3.65;;;25.60;99.90;;;;;;5027061;28;20534;-71
2023/08/16 09:29:52;;;;;;;8.88;3.35;;;25.40;99.90;;;;;;5028171;28;20026;-72
2023/08/16 09:32:18;;;;;;;6.63;3.20;;;25.70;99.90;;;;;;5028891;28;20022;-72
2023/08/16 09:34:44;;;;;;;8.70;3.50;;;25.90;99.90;;;;;;5027752;28;20040;-72
2023/08/16 09:37:10;;;;;;;7.05;3.85;;;25.70;99.90;;;;;;5027332;28;20033;-72
2023/08/16 09:39:36;;;;;;;7.38;3.92;;;25.80;99.90;;;;;;5026868;28;20029;-72
2023/08/16 09:42:08;;;;;;;6.38;3.67;;;25.80;99.90;;;;;;5027022;28;20095;-71
2023/08/16 09:44:37;;;;;;;7.57;4.32;;;25.80;99.90;;;;;;5027277;28;20022;-71
2023/08/16 09:47:15;;;;;;;4.93;3.67;;;25.60;99.90;;;;;;5026919;28;20037;-71
2023/08/16 09:49:43;;;;;;;4.15;3.00;;;25.60;99.90;;;;;;5027108;28;20068;-71
2023/08/16 09:52:12;;;;;;;4.63;3.38;;;25.70;99.90;;;;;;5026302;28;20462;-72
2023/08/16 09:54:38;;;;;;;5.00;2.95;;;26.00;99.90;;;;;;5026925;28;20634;-72
2023/08/16 09:57:04;;;;;;;8.20;3.65;;;26.30;99.90;;;;;;5026955;28;20026;-72
2023/08/16 09:59:31;;;;;;;5.45;3.22;;;26.60;99.90;;;;;;5027122;28;20727;-72
2023/08/16 10:01:58;;;;;;;5.95;3.40;;;26.90;99.90;;;;;;5026536;28;20025;-71
2023/08/16 10:04:25;;;;;;;5.05;3.53;;;27.10;99.90;;;;;;5027017;28;20017;-72
2023/08/16 10:06:51;;;;;;;5.80;3.10;;;27.10;99.90;;;;;;5026646;28;20026;-71
2023/08/16 10:09:17;;;;;;;6.95;4.10;;;27.20;99.90;;;;;;5026526;28;20084;-71
2023/08/16 10:11:44;;;;;;;8.02;3.28;;;27.00;99.90;;;;;;5026658;28;20132;-71
2023/08/16 10:14:12;;;;;;;5.63;3.50;;;27.30;99.90;;;;;;5025649;28;20414;-71
2023/08/16 10:16:38;;;;;;;5.57;4.10;;;27.30;99.90;;;;;;5026516;28;20041;-71
2023/08/16 10:19:07;;;;;;;5.03;3.17;;;27.10;99.90;;;;;;5027071;28;20052;-72
2023/08/16 10:21:37;;;;;;;6.70;3.88;;;27.00;99.90;;;;;;5027017;28;20021;-71
2023/08/16 10:24:04;;;;;;;7.05;4.22;;;26.80;99.90;;;;;;5026590;28;20593;-71
2023/08/16 10:26:32;;;;;;;4.40;3.05;;;27.10;99.90;;;;;;5026485;28;20037;-71
2023/08/16 10:29:03;;;;;;;4.75;3.08;;;27.00;99.90;;;;;;5024700;28;20034;-71
2023/08/16 10:31:34;;;;;;;5.22;3.33;;;27.00;99.90;;;;;;5021179;28;20041;-71
2023/08/16 10:34:01;;;;;;;8.38;3.83;;;26.90;99.90;;;;;;5025677;28;20568;-71
2023/08/16 10:36:27;;;;;;;7.22;4.57;;;26.90;99.90;;;;;;5026611;28;20104;-71
2023/08/16 10:38:55;;;;;;;5.72;3.55;;;27.10;99.70;;;;;;5026156;28;20026;-71
2023/08/16 10:41:21;;;;;;;5.18;3.50;;;26.90;99.50;;;;;;5026273;28;20037;-71
2023/08/16 10:43:54;;;;;;;4.90;3.13;;;26.80;99.90;;;;;;5026030;28;20105;-71
2023/08/16 10:46:28;;;;;;;6.20;3.53;;;26.90;99.90;;;;;;5026159;28;21004;-71
2023/08/16 10:49:02;;;;;;;5.60;4.03;;;27.00;99.90;;;;;;5025727;28;20017;-71
2023/08/16 10:51:29;;;;;;;6.53;3.13;;;27.10;99.90;;;;;;5026357;28;20033;-70
2023/08/16 10:53:56;;;;;;;8.02;3.35;;;27.70;99.90;;;;;;5025979;28;20068;-70
2023/08/16 10:56:22;;;;;;;4.68;3.63;;;28.30;99.70;;;;;;5026281;28;20051;-70
2023/08/16 10:58:49;;;;;;;8.93;2.88;;;28.10;98.90;;;;;;5025695;28;20483;-70
2023/08/16 11:01:16;;;;;;;5.72;3.42;;;28.00;99.40;;;;;;5025448;28;20037;-70
2023/08/16 11:03:46;;;;;;;4.22;2.80;;;28.40;98.60;;;;;;5024991;28;20026;-70
2023/08/16 11:06:13;;;;;;;4.47;3.30;;;28.60;98.80;;;;;;5026299;28;20052;-70
2023/08/16 11:08:43;;;;;;;4.05;3.05;;;28.70;98.20;;;;;;5026019;28;20056;-70
2023/08/16 11:11:11;;;;;;;5.85;3.20;;;28.70;98.00;;;;;;5026415;28;20029;-70
2023/08/16 11:13:38;;;;;;;5.00;2.92;;;28.40;97.40;;;;;;5026450;28;20116;-70
2023/08/16 11:16:04;;;;;;;5.30;2.95;;;28.10;98.30;;;;;;5025875;28;20030;-70
2023/08/16 11:18:32;;;;;;;4.47;2.90;;;28.10;98.00;;;;;;5025633;28;20021;-70
2023/08/16 11:20:59;;;;;;;4.55;3.13;;;28.30;99.00;;;;;;5025517;28;20030;-70
2023/08/16 11:23:45;;;;;;;5.13;3.22;;;28.50;98.30;;;;;;5025973;28;20858;-70
2023/08/16 11:26:11;;;;;;;4.68;2.95;;;28.70;98.50;;;;;;5025027;28;20049;-70
2023/08/16 11:28:40;;;;;;;5.68;2.88;;;29.00;97.80;;;;;;5025547;28;20383;-71
2023/08/16 11:31:07;;;;;;;4.88;3.10;;;28.50;97.40;;;;;;5025291;28;20418;-71
2023/08/16 11:33:35;;;;;;;5.80;3.00;;;28.70;98.90;;;;;;5025053;28;20525;-71
2023/08/16 11:36:05;;;;;;;6.00;2.83;;;29.00;98.00;;;;;;5025302;28;20067;-71
2023/08/16 11:38:32;;;;;;;4.57;2.70;;;29.40;97.50;;;;;;5025164;28;20033;-70
2023/08/16 11:40:58;;;;;;;5.60;2.45;;;29.20;97.10;;;;;;5024876;28;20104;-71
2023/08/16 11:43:28;;;;;;;4.32;2.80;;;28.90;96.30;;;;;;5025302;28;20590;-71
2023/08/16 11:45:54;;;;;;;3.63;2.20;;;29.00;97.10;;;;;;5025029;28;20032;-71
2023/08/16 11:48:20;;;;;;;3.47;2.13;;;29.20;96.20;;;;;;5024290;28;20850;-70
2023/08/16 11:50:48;;;;;;;4.38;2.88;;;29.30;95.70;;;;;;5024936;28;20502;-70
2023/08/16 11:53:17;;;;;;;3.22;2.05;;;29.20;96.50;;;;;;5025387;28;20390;-71
2023/08/16 11:56:04;;;;;;;5.40;2.28;;;29.20;95.10;;;;;;5025474;28;20030;-71
2023/08/16 11:58:41;;;;;;;4.78;2.42;;;29.10;95.10;;;;;;5025170;28;20033;-70
2023/08/16 12:01:09;;;;;;;4.47;2.08;;;29.50;95.40;;;;;;5025256;28;20029;-71
2023/08/16 12:03:35;;;;;;;5.78;2.20;;;29.70;94.60;;;;;;5025117;28;20554;-70
2023/08/16 12:06:11;;;;;;;3.30;2.17;;;29.70;95.00;;;;;;5025245;28;21037;-71
2023/08/16 12:08:49;;;;;;;4.88;1.92;;;29.30;94.60;;;;;;5025245;28;20026;-71
2023/08/16 12:11:24;;;;;;;3.65;2.40;;;29.40;95.40;;;;;;5025991;28;20040;-71
2023/08/16 12:13:50;;;;;;;3.50;2.20;;;29.50;95.30;;;;;;5025365;28;20483;-71
2023/08/16 12:16:16;;;;;;;5.03;2.08;;;29.70;95.20;;;;;;5028442;28;20103;-71
2023/08/16 12:18:41;;;;;;;3.97;2.47;;;29.70;94.90;;;;;;5029511;28;20460;-71
2023/08/16 12:21:07;;;;;;;3.70;2.35;;;29.80;95.60;;;;;;5029328;28;20029;-71
2023/08/16 12:23:34;;;;;;;3.65;2.25;;;30.00;95.70;;;;;;5028556;28;20025;-71
2023/08/16 12:26:00;;;;;;;4.40;2.30;;;29.90;95.00;;;;;;5027714;28;20368;-71
2023/08/16 12:28:25;;;;;;;4.32;2.63;;;29.60;95.10;;;;;;5028359;28;20109;-71
2023/08/16 12:30:51;;;;;;;5.10;2.30;;;29.70;96.20;;;;;;5028121;28;20040;-71
2023/08/16 12:33:17;;;;;;;4.05;2.35;;;29.80;95.70;;;;;;5028982;28;20060;-71
2023/08/16 12:35:42;;;;;;;4.80;2.30;;;29.90;95.30;;;;;;5029037;28;20362;-71
2023/08/16 12:38:08;;;;;;;5.07;2.95;;;30.10;96.20;;;;;;5029138;28;20099;-71
2023/08/16 12:40:34;;;;;;;4.65;2.63;;;30.20;95.70;;;;;;5030327;28;20037;-72
2023/08/16 12:43:01;;;;;;;4.10;2.13;;;30.20;95.60;;;;;;5030105;28;20430;-71
2023/08/16 12:45:27;;;;;;;4.72;2.40;;;30.00;96.30;;;;;;5028707;28;20637;-71